createdAt,value
2017-08-07T00:00:24.818Z,18.27
2017-08-07T00:02:52.483Z,18.20
2017-08-07T00:05:20.105Z,18.18
2017-08-07T00:07:47.726Z,18.15
2017-08-07T00:10:15.346Z,18.20
2017-08-07T00:12:42.936Z,18.22
2017-08-07T00:15:10.556Z,18.14
2017-08-07T00:17:38.150Z,18.18
2017-08-07T00:20:05.794Z,18.27
2017-08-07T00:22:33.399Z,18.26
2017-08-07T00:25:01.007Z,18.23
2017-08-07T00:27:28.640Z,18.13
2017-08-07T00:29:56.238Z,18.08
2017-08-07T00:32:23.868Z,18.03
2017-08-07T00:34:51.467Z,18.00
2017-08-07T00:37:19.099Z,18.04
2017-08-07T00:39:46.762Z,18.05
2017-08-07T00:42:14.394Z,18.03
2017-08-07T00:44:41.993Z,17.99
2017-08-07T00:47:09.637Z,17.85
2017-08-07T00:49:37.238Z,17.88
2017-08-07T00:52:04.935Z,17.92
2017-08-07T00:54:32.543Z,18.03
2017-08-07T00:57:00.163Z,18.09
2017-08-07T00:59:27.890Z,18.09
2017-08-07T01:01:55.523Z,17.96
2017-08-07T01:04:23.122Z,17.80
2017-08-07T01:06:50.830Z,17.71
2017-08-07T01:09:18.414Z,17.71
2017-08-07T01:11:46.139Z,17.65
2017-08-07T01:14:13.743Z,17.68
2017-08-07T01:16:41.380Z,17.63
2017-08-07T01:19:08.990Z,17.57
2017-08-07T01:21:36.681Z,17.41
2017-08-07T01:24:04.266Z,17.30
2017-08-07T01:26:32.031Z,17.33
2017-08-07T01:28:59.658Z,17.22
2017-08-07T01:31:27.264Z,17.22
2017-08-07T01:33:54.887Z,17.15
2017-08-07T01:36:22.503Z,17.08
2017-08-07T01:38:50.128Z,17.11
2017-08-07T01:41:17.785Z,17.05
2017-08-07T01:43:45.448Z,17.14
2017-08-07T01:46:13.039Z,17.07
2017-08-07T01:48:40.672Z,16.98
2017-08-07T01:51:08.343Z,16.88
2017-08-07T01:53:35.993Z,16.85
2017-08-07T01:56:03.594Z,16.79
2017-08-07T01:58:31.238Z,16.75
2017-08-07T02:00:58.885Z,16.78
2017-08-07T02:03:26.519Z,16.85
2017-08-07T02:05:54.118Z,16.86
2017-08-07T02:08:21.755Z,16.81
2017-08-07T02:10:49.387Z,16.80
2017-08-07T02:13:17.032Z,16.73
2017-08-07T02:15:44.646Z,16.74
2017-08-07T02:18:12.226Z,16.73
2017-08-07T02:20:39.834Z,16.76
2017-08-07T02:23:07.423Z,16.84
2017-08-07T02:25:35.094Z,16.87
2017-08-07T02:28:02.786Z,16.87
2017-08-07T02:30:30.463Z,16.88
2017-08-07T02:32:58.068Z,16.89
2017-08-07T02:35:25.700Z,16.97
2017-08-07T02:37:53.311Z,16.95
2017-08-07T02:40:20.917Z,16.88
2017-08-07T02:42:48.576Z,16.90
2017-08-07T02:45:16.222Z,16.85
2017-08-07T02:47:43.838Z,16.82
2017-08-07T02:50:11.446Z,16.80
2017-08-07T02:52:39.102Z,16.71
2017-08-07T02:55:06.718Z,16.62
2017-08-07T02:57:34.474Z,16.61
2017-08-07T03:00:02.067Z,16.62
2017-08-07T03:02:29.732Z,16.66
2017-08-07T03:04:57.339Z,16.57
2017-08-07T03:07:25.034Z,16.57
2017-08-07T03:09:52.635Z,16.57
2017-08-07T03:12:20.266Z,16.47
2017-08-07T03:14:47.871Z,16.33
2017-08-07T03:17:15.554Z,16.25
2017-08-07T03:19:43.179Z,16.25
2017-08-07T03:22:10.767Z,16.24
2017-08-07T03:24:38.405Z,16.14
2017-08-07T03:27:06.004Z,16.09
2017-08-07T03:29:33.651Z,16.12
2017-08-07T03:32:01.273Z,16.06
2017-08-07T03:34:28.906Z,16.12
2017-08-07T03:36:56.539Z,16.28
2017-08-07T03:39:24.188Z,16.36
2017-08-07T03:41:51.811Z,16.26
2017-08-07T03:44:19.407Z,16.14
2017-08-07T03:46:47.105Z,16.17
2017-08-07T03:49:14.711Z,16.19
2017-08-07T03:51:42.327Z,16.27
2017-08-07T03:54:09.932Z,16.27
2017-08-07T03:56:37.723Z,16.26
2017-08-07T03:59:05.354Z,16.11
2017-08-07T04:01:33.006Z,16.03
2017-08-07T04:04:00.610Z,15.98
2017-08-07T04:06:28.235Z,16.00
2017-08-07T04:08:55.908Z,15.94
2017-08-07T04:11:23.530Z,15.85
2017-08-07T04:13:51.133Z,15.83
2017-08-07T04:16:18.842Z,15.78
2017-08-07T04:18:46.799Z,15.74
2017-08-07T04:21:14.424Z,15.72
2017-08-07T04:23:42.033Z,15.66
2017-08-07T04:26:09.711Z,15.58
2017-08-07T04:28:37.383Z,15.42
2017-08-07T04:31:05.005Z,15.24
2017-08-07T04:33:32.628Z,15.07
2017-08-07T04:36:00.293Z,14.98
2017-08-07T04:38:27.905Z,14.99
2017-08-07T04:40:55.560Z,14.96
2017-08-07T04:43:23.191Z,14.96
2017-08-07T04:45:50.783Z,14.95
2017-08-07T04:48:18.402Z,15.04
2017-08-07T04:50:46.011Z,15.16
2017-08-07T04:53:13.641Z,15.29
2017-08-07T04:55:41.274Z,15.36
2017-08-07T04:58:08.939Z,15.36
2017-08-07T05:00:36.534Z,15.38
2017-08-07T05:03:04.246Z,15.51
2017-08-07T05:05:31.851Z,15.53
2017-08-07T05:07:59.447Z,15.59
2017-08-07T05:10:27.063Z,15.65
2017-08-07T05:12:54.670Z,15.70
2017-08-07T05:15:22.287Z,15.79
2017-08-07T05:17:49.937Z,15.82
2017-08-07T05:20:17.566Z,15.91
2017-08-07T05:22:45.174Z,16.01
2017-08-07T05:25:12.823Z,16.14
2017-08-07T05:27:40.464Z,16.30
2017-08-07T05:30:08.111Z,16.45
2017-08-07T05:32:35.727Z,16.58
2017-08-07T05:35:03.332Z,16.73
2017-08-07T05:37:30.958Z,16.78
2017-08-07T05:39:58.574Z,16.75
2017-08-07T05:42:26.219Z,16.77
2017-08-07T05:44:53.835Z,16.84
2017-08-07T05:47:21.478Z,16.87
2017-08-07T05:49:49.088Z,16.84
2017-08-07T05:52:16.726Z,16.67
2017-08-07T05:54:44.330Z,16.59
2017-08-07T05:57:11.974Z,16.59
2017-08-07T05:59:39.584Z,16.58
2017-08-07T06:02:07.274Z,16.60
2017-08-07T06:04:34.891Z,16.52
2017-08-07T06:07:02.657Z,16.45
2017-08-07T06:09:30.318Z,16.50
2017-08-07T06:11:57.968Z,16.57
2017-08-07T06:14:25.663Z,16.58
2017-08-07T06:16:53.323Z,16.64
2017-08-07T06:19:20.944Z,16.68
2017-08-07T06:21:48.587Z,16.76
2017-08-07T06:24:16.190Z,16.81
2017-08-07T06:26:43.846Z,16.87
2017-08-07T06:29:11.590Z,16.96
2017-08-07T06:31:39.301Z,17.04
2017-08-07T06:34:06.898Z,17.08
2017-08-07T06:36:34.502Z,17.14
2017-08-07T06:39:02.159Z,17.10
2017-08-07T06:41:29.751Z,17.15
2017-08-07T06:43:57.383Z,17.26
2017-08-07T06:46:25.010Z,17.32
2017-08-07T06:48:52.683Z,17.35
2017-08-07T06:51:20.308Z,17.35
2017-08-07T06:53:47.994Z,17.36
2017-08-07T06:56:15.606Z,17.46
2017-08-07T06:58:43.211Z,17.51
2017-08-07T07:01:10.862Z,17.58
2017-08-07T07:03:38.531Z,17.58
2017-08-07T07:06:06.159Z,17.63
2017-08-07T07:08:33.775Z,17.62
2017-08-07T07:11:01.403Z,17.60
2017-08-07T07:13:29.031Z,17.69
2017-08-07T07:15:56.685Z,17.75
2017-08-07T07:18:24.292Z,17.84
2017-08-07T07:20:51.914Z,17.91
2017-08-07T07:23:19.512Z,17.96
2017-08-07T07:25:47.230Z,17.98
2017-08-07T07:28:14.815Z,18.04
2017-08-07T07:30:42.523Z,18.11
2017-08-07T07:33:10.115Z,18.19
2017-08-07T07:35:37.726Z,18.19
2017-08-07T07:38:05.315Z,18.19
2017-08-07T07:40:32.939Z,18.28
2017-08-07T07:43:00.527Z,18.38
2017-08-07T07:45:28.191Z,18.48
2017-08-07T07:47:55.785Z,18.53
2017-08-07T07:50:23.411Z,18.62
2017-08-07T07:52:51.008Z,18.71
2017-08-07T07:55:18.646Z,18.78
2017-08-07T07:57:46.324Z,18.88
2017-08-07T08:00:13.982Z,19.01
2017-08-07T08:02:41.590Z,19.11
2017-08-07T08:05:09.203Z,19.18
2017-08-07T08:07:36.802Z,19.26
2017-08-07T08:10:04.421Z,19.29
2017-08-07T08:12:32.011Z,19.29
2017-08-07T08:14:59.678Z,19.36
2017-08-07T08:17:27.278Z,19.40
2017-08-07T08:19:54.942Z,19.42
2017-08-07T08:22:22.644Z,19.45
2017-08-07T08:24:50.304Z,19.52
2017-08-07T08:27:17.958Z,19.62
2017-08-07T08:29:45.571Z,19.72
2017-08-07T08:32:13.205Z,19.75
2017-08-07T08:34:40.867Z,19.79
2017-08-07T08:37:08.530Z,19.84
2017-08-07T08:39:36.170Z,19.93
2017-08-07T08:42:03.839Z,20.00
2017-08-07T08:44:31.455Z,20.11
2017-08-07T08:46:59.171Z,20.13
2017-08-07T08:49:26.775Z,20.21
2017-08-07T08:51:54.422Z,20.28
2017-08-07T08:54:22.056Z,20.35
2017-08-07T08:56:49.669Z,20.44
2017-08-07T08:59:17.291Z,20.48
2017-08-07T09:01:44.897Z,20.55
2017-08-07T09:04:12.507Z,20.57
2017-08-07T09:06:40.146Z,20.66
2017-08-07T09:09:07.730Z,20.73
2017-08-07T09:11:35.468Z,20.84
2017-08-07T09:14:03.053Z,20.92
2017-08-07T09:16:30.691Z,20.97
2017-08-07T09:18:58.323Z,20.99
2017-08-07T09:21:25.945Z,21.02
2017-08-07T09:23:53.538Z,21.12
2017-08-07T09:26:21.181Z,21.20
2017-08-07T09:28:48.774Z,21.30
2017-08-07T09:31:16.447Z,21.38
2017-08-07T09:33:44.030Z,21.44
2017-08-07T09:36:11.664Z,21.52
2017-08-07T09:38:39.278Z,21.71
2017-08-07T09:41:06.922Z,21.79
2017-08-07T09:43:34.532Z,21.84
2017-08-07T09:46:02.127Z,21.93
2017-08-07T09:48:29.797Z,21.98
2017-08-07T09:50:57.462Z,22.09
2017-08-07T09:53:25.058Z,22.20
2017-08-07T09:55:52.674Z,22.24
2017-08-07T09:58:20.298Z,22.23
2017-08-07T10:00:47.901Z,22.38
2017-08-07T10:03:15.518Z,22.48
2017-08-07T10:05:43.114Z,22.62
2017-08-07T10:08:10.739Z,22.68
2017-08-07T10:10:38.335Z,22.81
2017-08-07T10:13:05.962Z,22.93
2017-08-07T10:15:33.562Z,23.07
2017-08-07T10:18:01.187Z,23.12
2017-08-07T10:20:28.775Z,23.27
2017-08-07T10:22:56.414Z,23.32
2017-08-07T10:25:24.036Z,23.43
2017-08-07T10:27:51.631Z,23.50
2017-08-07T10:30:19.219Z,23.74
2017-08-07T10:32:46.862Z,23.97
2017-08-07T10:35:14.465Z,24.17
2017-08-07T10:37:42.058Z,24.39
2017-08-07T10:40:09.679Z,24.40
2017-08-07T10:42:37.306Z,24.59
2017-08-07T10:45:04.911Z,24.73
2017-08-07T10:47:32.493Z,24.77
2017-08-07T10:50:00.126Z,24.61
2017-08-07T10:52:27.715Z,24.61
2017-08-07T10:54:55.355Z,24.78
2017-08-07T10:57:22.963Z,24.96
2017-08-07T10:59:50.623Z,25.11
2017-08-07T11:02:18.210Z,25.14
2017-08-07T11:04:45.832Z,25.18
2017-08-07T11:07:13.500Z,25.11
2017-08-07T11:09:41.127Z,25.14
2017-08-07T11:12:08.732Z,24.89
2017-08-07T11:14:36.405Z,24.88
2017-08-07T11:17:03.994Z,25.14
2017-08-07T11:19:31.631Z,25.32
2017-08-07T11:21:59.227Z,25.27
2017-08-07T11:24:26.846Z,25.34
2017-08-07T11:26:54.458Z,25.44
2017-08-07T11:29:22.072Z,25.65
2017-08-07T11:31:49.663Z,25.80
2017-08-07T11:34:17.398Z,25.61
2017-08-07T11:36:44.994Z,25.62
2017-08-07T11:39:12.611Z,25.83
2017-08-07T11:41:40.214Z,26.06
2017-08-07T11:44:07.876Z,25.91
2017-08-07T11:46:35.495Z,25.88
2017-08-07T11:49:03.235Z,26.08
2017-08-07T11:51:30.835Z,26.13
2017-08-07T11:53:58.475Z,26.21
2017-08-07T11:56:26.063Z,26.17
2017-08-07T11:58:53.710Z,26.14
2017-08-07T12:01:21.354Z,26.34
2017-08-07T12:03:48.946Z,26.57
2017-08-07T12:06:16.583Z,26.82
2017-08-07T12:08:44.178Z,26.96
2017-08-07T12:11:11.799Z,27.06
2017-08-07T12:13:39.387Z,27.01
2017-08-07T12:16:07.001Z,27.17
2017-08-07T12:18:34.595Z,27.20
2017-08-07T12:21:02.223Z,27.30
2017-08-07T12:23:29.803Z,27.17
2017-08-07T12:25:57.440Z,27.08
2017-08-07T12:28:25.056Z,27.13
2017-08-07T12:30:52.695Z,27.15
2017-08-07T12:33:20.288Z,27.20
2017-08-07T12:35:47.946Z,27.37
2017-08-07T12:38:15.542Z,27.17
2017-08-07T12:40:43.171Z,27.40
2017-08-07T12:43:10.762Z,27.34
2017-08-07T12:45:38.383Z,27.37
2017-08-07T12:48:05.987Z,27.64
2017-08-07T12:50:33.603Z,27.69
2017-08-07T12:53:01.208Z,27.82
2017-08-07T12:55:28.844Z,27.72
2017-08-07T12:57:56.442Z,27.96
2017-08-07T13:00:24.086Z,28.03
2017-08-07T13:02:53.395Z,28.27
2017-08-07T13:05:21.014Z,28.31
2017-08-07T13:07:48.646Z,28.37
2017-08-07T13:10:16.274Z,28.09
2017-08-07T13:12:43.934Z,28.28
2017-08-07T13:15:11.629Z,28.25
2017-08-07T13:17:39.238Z,28.42
2017-08-07T13:20:06.834Z,28.09
2017-08-07T13:22:34.487Z,27.74
2017-08-07T13:25:02.111Z,27.83
2017-08-07T13:27:29.706Z,27.85
2017-08-07T13:29:57.314Z,27.89
2017-08-07T13:32:24.945Z,28.20
2017-08-07T13:34:52.539Z,28.35
2017-08-07T13:37:20.159Z,28.44
2017-08-07T13:39:47.742Z,28.58
2017-08-07T13:42:15.370Z,28.87
2017-08-07T13:44:42.964Z,29.36
2017-08-07T13:47:10.586Z,29.38
2017-08-07T13:49:38.187Z,29.12
2017-08-07T13:52:05.815Z,29.12
2017-08-07T13:54:33.403Z,29.24
2017-08-07T13:57:01.031Z,29.13
2017-08-07T13:59:28.632Z,29.73
2017-08-07T14:01:56.254Z,29.90
2017-08-07T14:04:23.858Z,30.24
2017-08-07T14:06:51.506Z,29.92
2017-08-07T14:09:19.105Z,29.77
2017-08-07T14:11:46.751Z,30.19
2017-08-07T14:14:14.383Z,30.51
2017-08-07T14:16:42.018Z,30.67
2017-08-07T14:19:09.611Z,30.54
2017-08-07T14:21:37.207Z,30.42
2017-08-07T14:24:04.850Z,30.21
2017-08-07T14:26:32.435Z,30.12
2017-08-07T14:29:00.065Z,29.86
2017-08-07T14:31:27.684Z,30.09
2017-08-07T14:33:55.327Z,30.10
2017-08-07T14:36:22.939Z,29.88
2017-08-07T14:38:50.596Z,30.17
2017-08-07T14:41:18.194Z,30.20
2017-08-07T14:43:45.841Z,29.87
2017-08-07T14:46:13.437Z,30.10
2017-08-07T14:48:41.107Z,29.88
2017-08-07T14:51:08.711Z,29.13
2017-08-07T14:53:36.355Z,29.44
2017-08-07T14:56:03.937Z,29.96
2017-08-07T14:58:31.578Z,30.42
2017-08-07T15:00:59.186Z,30.79
2017-08-07T15:03:26.815Z,31.47
2017-08-07T15:05:54.413Z,31.54
2017-08-07T15:08:22.070Z,31.51
2017-08-07T15:10:49.668Z,31.06
2017-08-07T15:13:17.322Z,30.50
2017-08-07T15:15:44.930Z,30.42
2017-08-07T15:18:12.564Z,30.67
2017-08-07T15:20:40.174Z,30.40
2017-08-07T15:23:07.803Z,30.37
2017-08-07T15:25:35.424Z,30.09
2017-08-07T15:28:03.059Z,29.89
2017-08-07T15:30:30.649Z,29.92
2017-08-07T15:32:58.272Z,29.85
2017-08-07T15:35:25.995Z,30.07
2017-08-07T15:37:53.641Z,30.26
2017-08-07T15:40:21.235Z,30.24
2017-08-07T15:42:48.889Z,30.21
2017-08-07T15:45:16.498Z,30.35
2017-08-07T15:47:44.129Z,30.23
2017-08-07T15:50:11.731Z,30.42
2017-08-07T15:52:39.356Z,30.47
2017-08-07T15:55:06.963Z,30.28
2017-08-07T15:57:34.598Z,30.05
2017-08-07T16:00:02.211Z,29.83
2017-08-07T16:02:29.839Z,29.83
2017-08-07T16:04:57.438Z,29.79
2017-08-07T16:07:25.077Z,29.57
2017-08-07T16:09:52.685Z,29.54
2017-08-07T16:12:20.330Z,29.51
2017-08-07T16:14:47.935Z,29.40
2017-08-07T16:17:15.585Z,29.09
2017-08-07T16:19:43.189Z,29.13
2017-08-07T16:22:10.776Z,29.08
2017-08-07T16:24:38.418Z,29.16
2017-08-07T16:27:06.018Z,29.33
2017-08-07T16:29:33.638Z,29.29
2017-08-07T16:32:01.241Z,29.28
2017-08-07T16:34:28.852Z,29.07
2017-08-07T16:36:56.454Z,28.89
2017-08-07T16:39:24.070Z,28.63
2017-08-07T16:41:51.660Z,28.66
2017-08-07T16:44:19.358Z,28.61
2017-08-07T16:46:46.954Z,28.77
2017-08-07T16:49:14.570Z,28.85
2017-08-07T16:51:42.181Z,29.13
2017-08-07T16:54:09.809Z,29.06
2017-08-07T16:56:37.411Z,28.98
2017-08-07T16:59:05.051Z,28.57
2017-08-07T17:01:32.663Z,28.47
2017-08-07T17:04:00.322Z,28.57
2017-08-07T17:06:27.913Z,28.54
2017-08-07T17:08:55.540Z,28.46
2017-08-07T17:11:23.231Z,28.25
2017-08-07T17:13:50.857Z,28.14
2017-08-07T17:16:18.451Z,28.12
2017-08-07T17:18:46.092Z,28.15
2017-08-07T17:21:13.698Z,28.23
2017-08-07T17:23:41.332Z,28.25
2017-08-07T17:26:08.939Z,28.47
2017-08-07T17:28:36.592Z,28.58
2017-08-07T17:31:04.210Z,28.55
2017-08-07T17:33:31.794Z,28.34
2017-08-07T17:35:59.476Z,28.27
2017-08-07T17:38:27.083Z,28.36
2017-08-07T17:40:54.717Z,28.52
2017-08-07T17:43:22.322Z,28.50
2017-08-07T17:45:49.942Z,28.68
2017-08-07T17:48:17.534Z,28.72
2017-08-07T17:50:45.210Z,28.70
2017-08-07T17:53:12.832Z,28.56
2017-08-07T17:55:40.482Z,28.58
2017-08-07T17:58:08.079Z,28.58
2017-08-07T18:00:35.738Z,28.58
2017-08-07T18:03:03.343Z,28.61
2017-08-07T18:05:30.965Z,28.63
2017-08-07T18:07:58.565Z,28.62
2017-08-07T18:10:26.210Z,28.66
2017-08-07T18:12:53.819Z,28.62
2017-08-07T18:15:21.454Z,28.53
2017-08-07T18:17:49.058Z,28.40
2017-08-07T18:20:16.742Z,28.18
2017-08-07T18:22:44.378Z,27.97
2017-08-07T18:25:12.010Z,27.85
2017-08-07T18:27:39.604Z,27.75
2017-08-07T18:30:07.210Z,27.65
2017-08-07T18:32:34.838Z,27.56
2017-08-07T18:35:02.435Z,27.48
2017-08-07T18:37:30.071Z,27.37
2017-08-07T18:39:57.674Z,27.27
2017-08-07T18:42:25.306Z,27.18
2017-08-07T18:44:52.914Z,27.09
2017-08-07T18:47:20.556Z,26.97
2017-08-07T18:49:48.151Z,26.86
2017-08-07T18:52:15.912Z,26.78
2017-08-07T18:54:43.533Z,26.67
2017-08-07T18:57:11.165Z,26.60
2017-08-07T18:59:38.841Z,26.58
2017-08-07T19:02:06.495Z,26.58
2017-08-07T19:04:34.099Z,26.56
2017-08-07T19:07:01.791Z,26.52
2017-08-07T19:09:29.390Z,26.45
2017-08-07T19:11:57.099Z,26.40
2017-08-07T19:14:24.695Z,26.34
2017-08-07T19:16:52.361Z,26.32
2017-08-07T19:19:19.965Z,26.24
2017-08-07T19:21:47.610Z,26.18
2017-08-07T19:24:15.223Z,26.07
2017-08-07T19:26:42.856Z,26.03
2017-08-07T19:29:10.471Z,26.01
2017-08-07T19:31:38.093Z,25.94
2017-08-07T19:34:05.735Z,25.85
2017-08-07T19:36:33.363Z,25.83
2017-08-07T19:39:00.994Z,25.76
2017-08-07T19:41:28.648Z,25.67
2017-08-07T19:43:56.236Z,25.62
2017-08-07T19:46:23.850Z,25.56
2017-08-07T19:48:51.462Z,25.56
2017-08-07T19:51:19.136Z,25.55
2017-08-07T19:53:46.735Z,25.48
2017-08-07T19:56:14.366Z,25.40
2017-08-07T19:58:41.959Z,25.35
2017-08-07T20:01:09.596Z,25.30
2017-08-07T20:03:37.197Z,25.27
2017-08-07T20:06:04.811Z,25.16
2017-08-07T20:08:32.403Z,25.11
2017-08-07T20:11:00.007Z,25.08
2017-08-07T20:13:27.647Z,25.01
2017-08-07T20:15:55.260Z,25.07
2017-08-07T20:18:22.887Z,25.25
2017-08-07T20:20:50.514Z,25.64
2017-08-07T20:23:18.163Z,27.04
2017-08-07T20:25:45.783Z,28.24
2017-08-07T20:28:13.434Z,29.02
2017-08-07T20:30:41.080Z,29.57
2017-08-07T20:33:08.735Z,29.94
2017-08-07T20:35:36.322Z,30.11
2017-08-07T20:38:03.968Z,30.22
2017-08-07T20:40:31.583Z,30.33
2017-08-07T20:42:59.215Z,30.69
2017-08-07T20:45:26.882Z,30.86
2017-08-07T20:47:54.527Z,30.39
2017-08-07T20:50:22.166Z,29.65
2017-08-07T20:52:49.841Z,28.90
2017-08-07T20:55:17.471Z,28.25
2017-08-07T20:57:45.070Z,27.72
2017-08-07T21:00:12.730Z,27.28
2017-08-07T21:02:40.335Z,26.96
2017-08-07T21:05:08.080Z,26.58
2017-08-07T21:07:35.677Z,26.32
2017-08-07T21:10:03.319Z,25.99
2017-08-07T21:12:30.933Z,25.78
2017-08-07T21:14:58.559Z,25.56
2017-08-07T21:17:26.253Z,25.43
2017-08-07T21:19:53.869Z,25.27
2017-08-07T21:22:21.482Z,25.17
2017-08-07T21:24:49.119Z,25.03
2017-08-07T21:27:16.734Z,24.92
2017-08-07T21:29:44.382Z,24.80
2017-08-07T21:32:12.004Z,24.71
2017-08-07T21:34:39.750Z,24.61
2017-08-07T21:37:07.363Z,24.59
2017-08-07T21:39:35.002Z,24.56
2017-08-07T21:42:02.633Z,24.49
2017-08-07T21:44:30.378Z,24.41
2017-08-07T21:46:57.991Z,24.35
2017-08-07T21:49:25.586Z,24.28
2017-08-07T21:51:53.240Z,24.21
2017-08-07T21:54:20.834Z,24.24
2017-08-07T21:56:48.642Z,24.23
2017-08-07T21:59:16.242Z,24.12
2017-08-07T22:01:43.894Z,24.03
2017-08-07T22:04:11.493Z,23.91
2017-08-07T22:06:39.236Z,23.74
2017-08-07T22:09:06.831Z,23.62
2017-08-07T22:11:34.426Z,23.49
2017-08-07T22:14:02.077Z,23.37
2017-08-07T22:16:29.680Z,23.36
2017-08-07T22:18:57.349Z,23.26
2017-08-07T22:21:24.935Z,23.14
2017-08-07T22:23:52.606Z,23.07
2017-08-07T22:26:20.219Z,23.04
2017-08-07T22:28:47.867Z,22.97
2017-08-07T22:31:15.480Z,22.91
2017-08-07T22:33:43.110Z,22.86
2017-08-07T22:36:10.771Z,22.91
2017-08-07T22:38:38.405Z,22.95
2017-08-07T22:41:06.038Z,23.00
2017-08-07T22:43:33.679Z,23.00
2017-08-07T22:46:01.266Z,22.96
2017-08-07T22:48:28.915Z,22.93
2017-08-07T22:50:56.523Z,22.75
2017-08-07T22:53:24.287Z,22.66
2017-08-07T22:55:51.922Z,22.62
2017-08-07T22:58:19.526Z,22.62
2017-08-07T23:00:47.172Z,22.57
2017-08-07T23:03:14.764Z,22.56
2017-08-07T23:05:42.401Z,22.54
2017-08-07T23:08:09.995Z,22.57
2017-08-07T23:10:37.655Z,22.56
2017-08-07T23:13:05.238Z,22.47
2017-08-07T23:15:32.882Z,22.41
2017-08-07T23:18:00.486Z,22.42
2017-08-07T23:20:28.227Z,22.27
2017-08-07T23:22:56.045Z,22.24
2017-08-07T23:25:23.642Z,22.16
2017-08-07T23:27:51.358Z,22.13
2017-08-07T23:30:18.967Z,22.09
2017-08-07T23:32:46.590Z,22.07
2017-08-07T23:35:14.181Z,21.95
2017-08-07T23:37:41.820Z,21.92
2017-08-07T23:40:09.414Z,21.85
2017-08-07T23:42:37.045Z,21.84
2017-08-07T23:45:04.640Z,21.82
2017-08-07T23:47:32.462Z,21.85
2017-08-07T23:50:00.055Z,21.82
2017-08-07T23:52:27.646Z,21.85
2017-08-07T23:54:55.278Z,21.85
2017-08-07T23:57:22.867Z,21.87
2017-08-07T23:59:50.498Z,21.79
